Time;durP1;ratioP1;P1;durP2;ratioP2;P2;SDS_P1;SDS_P2;PMS_P1;PMS_P2;Temp;Humidity;BMP_temperature;BMP_pressure;BME280_temperature;BME280_humidity;BME280_pressure;Samples;Min_cycle;Max_cycle;Signal;HPM_P1;HPM_P2
2022/01/08 00:01:56;;;;;;;11.23;6.13;;;;;;;3.44;100.00;95058.44;5071261;28;20489;-60
2022/01/08 00:04:23;;;;;;;10.02;5.70;;;;;;;3.47;100.00;95055.50;5070745;28;20052;-60
2022/01/08 00:06:50;;;;;;;11.02;6.10;;;;;;;3.49;100.00;95050.97;5070492;28;20036;-60
2022/01/08 00:09:17;;;;;;;12.75;6.05;;;;;;;3.47;100.00;95052.91;5070320;28;20044;-59
2022/01/08 00:11:44;;;;;;;12.15;6.50;;;;;;;3.50;100.00;95049.19;5067186;28;20054;-60
2022/01/08 00:14:11;;;;;;;10.63;5.30;;;;;;;3.51;100.00;95049.03;5069194;28;20075;-60
2022/01/08 00:16:38;;;;;;;19.13;6.65;;;;;;;3.50;100.00;95049.19;5071303;28;20033;-59
2022/01/08 00:19:05;;;;;;;9.77;5.85;;;;;;;3.48;100.00;95049.38;5071672;28;20444;-60
2022/01/08 00:21:32;;;;;;;12.43;6.38;;;;;;;3.49;100.00;95056.09;5071470;28;20036;-59
2022/01/08 00:23:59;;;;;;;12.13;6.57;;;;;;;3.45;100.00;95039.44;5078024;28;20041;-59
2022/01/08 00:26:26;;;;;;;8.20;4.82;;;;;;;3.47;100.00;95042.63;5075499;28;20043;-59
2022/01/08 00:28:53;;;;;;;11.15;5.93;;;;;;;3.51;100.00;95048.19;5070672;28;20041;-60
2022/01/08 00:31:20;;;;;;;9.30;5.55;;;;;;;3.51;100.00;95043.88;5068330;28;20450;-60
2022/01/08 00:33:47;;;;;;;19.08;7.05;;;;;;;3.51;100.00;95038.72;5072227;28;20040;-60
2022/01/08 00:36:14;;;;;;;17.40;8.10;;;;;;;3.53;100.00;95035.94;5071113;28;20481;-60
2022/01/08 00:38:41;;;;;;;10.77;5.65;;;;;;;3.54;100.00;95032.41;5075776;28;20037;-59
2022/01/08 00:41:08;;;;;;;11.55;6.20;;;;;;;3.56;100.00;95033.78;5072525;28;20131;-60
2022/01/08 00:43:35;;;;;;;10.32;5.30;;;;;;;3.54;100.00;95028.03;5070543;28;20040;-59
2022/01/08 00:46:02;;;;;;;11.23;5.53;;;;;;;3.43;100.00;95002.78;5071341;28;20158;-59
2022/01/08 00:48:29;;;;;;;11.00;5.75;;;;;;;3.56;100.00;95015.78;5073703;28;20067;-60
2022/01/08 00:50:56;;;;;;;10.50;5.55;;;;;;;3.53;100.00;95015.34;5070724;28;20404;-60
2022/01/08 00:53:24;;;;;;;10.82;5.13;;;;;;;3.51;100.00;95012.16;5076080;28;20063;-60
2022/01/08 00:55:51;;;;;;;8.35;4.13;;;;;;;3.55;100.00;95021.91;5071593;28;20044;-59
2022/01/08 00:58:18;;;;;;;7.70;3.78;;;;;;;3.50;100.00;95015.72;5073876;28;20047;-59
2022/01/08 01:00:45;;;;;;;7.68;3.83;;;;;;;3.43;100.00;95000.19;5074146;28;20040;-59
2022/01/08 01:03:12;;;;;;;7.63;4.30;;;;;;;3.50;100.00;95011.38;5076263;28;20072;-60
2022/01/08 01:05:39;;;;;;;14.60;4.75;;;;;;;3.50;100.00;95013.94;5073206;28;20047;-59
2022/01/08 01:08:05;;;;;;;7.72;3.97;;;;;;;3.48;100.00;95002.22;5077667;28;20059;-59
2022/01/08 01:10:32;;;;;;;7.68;3.47;;;;;;;3.46;100.00;94999.84;5072261;28;20413;-60
2022/01/08 01:12:59;;;;;;;8.20;3.58;;;;;;;3.44;100.00;95006.94;5072674;28;20053;-60
2022/01/08 01:15:26;;;;;;;7.88;4.53;;;;;;;3.41;100.00;94997.78;5076696;28;20040;-59
2022/01/08 01:17:53;;;;;;;9.10;4.43;;;;;;;3.42;100.00;94996.81;5075266;28;20051;-59
2022/01/08 01:20:21;;;;;;;9.82;4.32;;;;;;;3.43;100.00;94995.03;5070964;28;20120;-60
2022/01/08 01:25:27;;;;;;;9.15;4.65;;;;;;;3.43;100.00;94992.47;5077328;28;20426;-59
2022/01/08 01:28:01;;;;;;;7.95;4.00;;;;;;;3.38;100.00;94987.84;5079048;28;20047;-59
2022/01/08 01:48:54;;;;;;;9.55;4.10;;;;;;;3.40;100.00;94969.66;5073532;28;20048;-59
2022/01/08 01:51:23;;;;;;;8.18;3.40;;;;;;;3.42;100.00;94967.69;5076632;28;20048;-59
2022/01/08 01:53:50;;;;;;;7.25;3.80;;;;;;;3.44;100.00;94970.91;5081949;28;20044;-59
2022/01/08 01:56:18;;;;;;;7.50;3.45;;;;;;;3.43;100.00;94974.44;5076686;28;20044;-59
2022/01/08 01:58:46;;;;;;;9.32;3.38;;;;;;;3.41;100.00;94966.09;5073954;28;20051;-60
2022/01/08 02:01:13;;;;;;;7.28;3.65;;;;;;;3.40;100.00;94975.63;5076100;28;20048;-60
2022/01/08 02:03:41;;;;;;;8.00;4.40;;;;;;;3.42;100.00;94975.41;5082798;28;20048;-59
2022/01/08 02:06:09;;;;;;;6.15;3.53;;;;;;;3.42;100.00;94967.69;5077433;28;20044;-60
2022/01/08 02:08:41;;;;;;;6.72;3.17;;;;;;;3.38;100.00;94966.47;5074458;28;20059;-59
2022/01/08 02:11:09;;;;;;;6.47;3.35;;;;;;;3.36;100.00;94968.44;5080954;28;20094;-59
2022/01/08 02:13:36;;;;;;;4.13;2.65;;;;;;;3.35;100.00;94974.53;5077923;28;20040;-59
2022/01/08 02:16:05;;;;;;;7.35;3.38;;;;;;;3.35;100.00;94977.13;5077025;28;20045;-60
2022/01/08 02:18:34;;;;;;;7.15;2.90;;;;;;;3.26;100.00;94968.72;5073246;28;20044;-59
2022/01/08 02:21:01;;;;;;;5.43;3.20;;;;;;;3.32;100.00;94973.16;5073688;28;20044;-59
2022/01/08 02:23:30;;;;;;;7.15;3.35;;;;;;;3.25;100.00;94970.50;5075824;28;20037;-60
2022/01/08 02:26:05;;;;;;;5.45;3.00;;;;;;;3.25;100.00;94962.78;5075182;28;20040;-59
2022/01/08 02:28:32;;;;;;;7.28;3.53;;;;;;;3.23;100.00;94959.59;5075148;28;20477;-59
2022/01/08 02:30:59;;;;;;;5.20;2.78;;;;;;;3.27;100.00;94948.94;5078805;28;20044;-57
2022/01/08 02:33:29;;;;;;;3.90;2.50;;;;;;;3.25;100.00;94941.38;5073786;28;20033;-59
2022/01/08 02:35:57;;;;;;;4.25;2.17;;;;;;;3.29;100.00;94939.25;5075508;28;20037;-60
2022/01/08 02:38:24;;;;;;;6.80;3.05;;;;;;;3.28;100.00;94935.06;5073714;28;20040;-60
2022/01/08 02:40:56;;;;;;;4.70;2.65;;;;;;;3.28;100.00;94933.31;5076147;28;20524;-59
2022/01/08 02:43:24;;;;;;;3.97;2.60;;;;;;;3.30;100.00;94933.91;5079261;28;20036;-60
2022/01/08 02:45:51;;;;;;;4.40;2.50;;;;;;;3.30;100.00;94930.56;5075436;28;20047;-59
2022/01/08 02:48:18;;;;;;;5.20;2.75;;;;;;;3.25;100.00;94921.56;5075722;28;20490;-59
2022/01/08 02:50:46;;;;;;;5.10;2.65;;;;;;;3.29;100.00;94916.88;5074939;28;20044;-60
2022/01/08 02:53:13;;;;;;;6.45;3.17;;;;;;;3.28;100.00;94899.03;5107465;27;20130;-59
2022/01/08 02:55:40;;;;;;;6.90;3.33;;;;;;;3.22;100.00;94896.22;5074164;28;20109;-60
2022/01/08 02:58:07;;;;;;;6.05;2.72;;;;;;;3.17;100.00;94892.59;5075243;28;20051;-60
2022/01/08 03:00:34;;;;;;;5.03;2.47;;;;;;;3.16;100.00;94891.00;5074479;28;20040;-59
2022/01/08 03:03:01;;;;;;;2.67;1.75;;;;;;;3.14;100.00;94883.47;5074531;28;20068;-59
2022/01/08 03:05:28;;;;;;;4.50;2.35;;;;;;;3.07;100.00;94872.31;5078058;28;20064;-59
2022/01/08 03:07:55;;;;;;;6.05;2.55;;;;;;;3.20;100.00;94887.06;5079537;28;20044;-59
2022/01/08 03:10:21;;;;;;;3.58;2.20;;;;;;;3.20;100.00;94885.28;5073041;28;20493;-59
2022/01/08 03:12:49;;;;;;;3.97;2.50;;;;;;;3.25;100.00;94888.13;5077738;28;20517;-60
2022/01/08 03:15:19;;;;;;;3.85;2.65;;;;;;;3.26;100.00;94881.22;5076337;28;20044;-59
2022/01/08 03:17:46;;;;;;;3.13;1.95;;;;;;;3.28;100.00;94883.56;5081068;28;20040;-60
2022/01/08 03:20:14;;;;;;;5.72;2.28;;;;;;;3.30;100.00;94876.50;5075051;28;20071;-60
2022/01/08 03:22:44;;;;;;;5.47;3.00;;;;;;;3.27;100.00;94876.84;5075327;28;20051;-59
2022/01/08 03:25:12;;;;;;;6.53;2.78;;;;;;;3.27;100.00;94892.28;5075211;28;20055;-59
2022/01/08 03:27:41;;;;;;;4.18;1.95;;;;;;;3.29;100.00;94895.47;5076199;28;20049;-60
2022/01/08 03:30:11;;;;;;;7.07;3.10;;;;;;;3.23;100.00;94872.06;5073118;28;20048;-59
2022/01/08 03:32:39;;;;;;;4.75;2.35;;;;;;;3.31;100.00;94881.44;5080984;28;20039;-59
2022/01/08 03:35:07;;;;;;;4.00;2.20;;;;;;;3.31;100.00;94883.22;5078846;28;20040;-59
2022/01/08 03:37:34;;;;;;;4.43;2.55;;;;;;;3.23;100.00;94892.66;5070248;28;20046;-60
2022/01/08 03:40:02;;;;;;;5.30;2.45;;;;;;;3.27;100.00;94892.28;5082710;28;20417;-60
2022/01/08 03:42:29;;;;;;;3.65;2.03;;;;;;;3.29;100.00;94890.34;5070533;28;20048;-59
2022/01/08 03:44:55;;;;;;;8.88;2.78;;;;;;;3.27;100.00;94893.09;5072597;28;20406;-60
2022/01/08 03:49:57;;;;;;;3.67;1.90;;;;;;;3.26;100.00;94886.38;5069058;28;20109;-59
2022/01/08 03:52:25;;;;;;;5.22;2.75;;;;;;;3.25;100.00;94885.53;5076161;28;20040;-60
2022/01/08 03:54:52;;;;;;;6.03;3.25;;;;;;;3.22;100.00;94870.50;5073738;28;20405;-59
2022/01/08 03:57:18;;;;;;;5.80;2.90;;;;;;;3.21;100.00;94879.19;5071910;28;20119;-59
2022/01/08 03:59:45;;;;;;;3.15;1.67;;;;;;;3.24;100.00;94873.66;5076893;28;20051;-59
2022/01/08 04:02:12;;;;;;;3.67;2.08;;;;;;;3.17;100.00;94867.66;5075545;28;20517;-60
2022/01/08 04:04:39;;;;;;;4.45;2.47;;;;;;;3.22;100.00;94865.34;5077476;28;20048;-59
2022/01/08 04:07:07;;;;;;;3.28;2.03;;;;;;;3.24;100.00;94876.25;5071824;28;20036;-60
2022/01/08 04:09:34;;;;;;;3.90;2.20;;;;;;;3.19;100.00;94868.28;5075580;28;20044;-59
2022/01/08 04:12:04;;;;;;;4.95;2.33;;;;;;;3.18;100.00;94858.94;5077818;28;20056;-59
2022/01/08 04:14:41;;;;;;;3.88;2.85;;;;;;;3.20;100.00;94867.28;5076629;28;20043;-59
2022/01/08 04:17:09;;;;;;;4.18;1.85;;;;;;;3.22;100.00;94855.03;5073599;28;20047;-59
2022/01/08 04:19:36;;;;;;;2.53;1.05;;;;;;;3.25;100.00;94854.66;5071037;28;20041;-60
2022/01/08 04:22:11;;;;;;;2.67;1.30;;;;;;;3.28;100.00;94852.69;5077253;28;20489;-60
2022/01/08 04:24:40;;;;;;;4.60;2.05;;;;;;;3.23;100.00;94851.47;5076558;28;20703;-59
2022/01/08 04:27:08;;;;;;;2.63;1.85;;;;;;;3.27;100.00;94851.13;5077217;28;20478;-59
2022/01/08 04:29:34;;;;;;;3.47;2.25;;;;;;;3.27;100.00;94851.13;5071084;28;20044;-60
2022/01/08 04:32:01;;;;;;;4.22;2.38;;;;;;;3.27;100.00;94845.97;5071921;28;20052;-59
2022/01/08 04:34:28;;;;;;;3.03;2.25;;;;;;;3.33;100.00;94846.03;5069332;28;20056;-59
2022/01/08 04:36:55;;;;;;;3.03;1.40;;;;;;;3.31;100.00;94852.31;5077013;28;20059;-59
2022/01/08 04:39:22;;;;;;;3.35;1.55;;;;;;;3.35;100.00;94848.38;5074950;28;20514;-59
2022/01/08 04:41:49;;;;;;;3.75;2.08;;;;;;;3.37;100.00;94846.47;5072168;28;20044;-59
2022/01/08 04:44:16;;;;;;;2.05;1.38;;;;;;;3.40;100.00;94851.22;5074412;28;20046;-59
2022/01/08 04:46:43;;;;;;;2.88;1.80;;;;;;;3.41;100.00;94855.41;5071907;28;20742;-59
2022/01/08 04:49:10;;;;;;;2.95;0.95;;;;;;;3.38;100.00;94859.13;5076688;28;20044;-60
2022/01/08 04:51:37;;;;;;;2.25;1.40;;;;;;;3.42;100.00;94854.41;5078328;28;20532;-59
2022/01/08 04:54:04;;;;;;;2.50;1.98;;;;;;;3.41;100.00;94863.13;5076184;28;20035;-59
2022/01/08 04:56:31;;;;;;;1.95;1.15;;;;;;;3.45;100.00;94857.41;5076978;28;20126;-60
2022/01/08 04:58:58;;;;;;;2.42;1.40;;;;;;;3.42;100.00;94849.25;5079482;28;20040;-59
2022/01/08 05:01:25;;;;;;;2.28;1.50;;;;;;;3.45;100.00;94849.66;5071367;28;20041;-59
2022/01/08 05:03:52;;;;;;;1.35;0.90;;;;;;;3.48;100.00;94853.66;5079526;28;20054;-60
2022/01/08 05:06:19;;;;;;;2.35;1.40;;;;;;;3.40;100.00;94849.47;5086391;28;20039;-59
2022/01/08 05:08:46;;;;;;;3.92;1.88;;;;;;;3.42;100.00;94844.09;5081168;28;20048;-59
2022/01/08 05:11:13;;;;;;;4.55;2.47;;;;;;;3.40;100.00;94846.06;5076104;28;20052;-60
2022/01/08 05:13:40;;;;;;;9.43;3.60;;;;;;;3.37;100.00;94836.16;5074663;28;20044;-59
2022/01/08 05:16:07;;;;;;;5.70;3.22;;;;;;;3.40;100.00;94838.34;5083834;28;20059;-59
2022/01/08 05:18:34;;;;;;;3.88;1.90;;;;;;;3.35;100.00;94848.38;5077124;28;20044;-60
2022/01/08 05:21:23;;;;;;;3.65;2.03;;;;;;;3.38;100.00;94842.88;5077044;28;20421;-60
2022/01/08 05:23:50;;;;;;;2.58;1.30;;;;;;;3.30;100.00;94832.72;5075326;28;20126;-60
2022/01/08 05:26:17;;;;;;;4.88;2.50;;;;;;;3.33;100.00;94840.06;5077238;28;20048;-60
2022/01/08 05:28:44;;;;;;;5.70;2.60;;;;;;;3.32;100.00;94841.06;5075865;28;20054;-59
2022/01/08 05:31:15;;;;;;;3.75;2.35;;;;;;;3.32;100.00;94843.63;5078118;28;20047;-59
2022/01/08 05:33:45;;;;;;;9.55;3.67;;;;;;;3.32;100.00;94843.63;5078559;28;20046;-60
2022/01/08 05:36:13;;;;;;;11.75;3.30;;;;;;;3.36;100.00;94848.22;5074895;28;20036;-60
2022/01/08 05:38:39;;;;;;;10.80;3.70;;;;;;;3.34;100.00;94846.81;5074986;28;20055;-60
2022/01/08 05:41:07;;;;;;;8.00;3.50;;;;;;;3.43;100.00;94840.56;5081645;28;20048;-60
2022/01/08 05:43:34;;;;;;;4.45;1.88;;;;;;;3.44;100.00;94842.16;5076781;28;20036;-59
2022/01/08 05:46:01;;;;;;;4.80;1.88;;;;;;;3.47;100.00;94846.13;5076913;28;20075;-59
2022/01/08 05:48:28;;;;;;;4.97;2.65;;;;;;;3.41;100.00;94845.09;5078322;28;20032;-60
2022/01/08 05:50:55;;;;;;;4.78;2.35;;;;;;;3.43;100.00;94835.41;5076063;28;20402;-59
2022/01/08 05:53:22;;;;;;;2.95;2.15;;;;;;;3.42;100.00;94838.94;5077732;28;20044;-59
2022/01/08 05:55:49;;;;;;;5.00;2.38;;;;;;;3.46;100.00;94829.88;5078766;28;20043;-60
2022/01/08 05:58:16;;;;;;;3.10;2.00;;;;;;;3.45;100.00;94834.22;5073485;28;20041;-60
2022/01/08 06:00:43;;;;;;;2.60;1.83;;;;;;;3.47;100.00;94826.31;5075983;28;20391;-59
2022/01/08 06:03:10;;;;;;;4.15;2.03;;;;;;;3.51;100.00;94822.41;5077438;28;20045;-60
2022/01/08 06:05:37;;;;;;;4.60;2.40;;;;;;;3.48;100.00;94825.34;5075192;28;20040;-59
2022/01/08 06:08:04;;;;;;;3.45;2.20;;;;;;;3.43;100.00;94819.94;5074131;28;20437;-60
2022/01/08 06:10:31;;;;;;;5.75;2.97;;;;;;;3.43;100.00;94817.38;5076291;28;20040;-60
2022/01/08 06:12:58;;;;;;;6.00;2.72;;;;;;;3.42;100.00;94818.34;5074216;28;20051;-60
2022/01/08 06:15:24;;;;;;;3.70;1.95;;;;;;;3.45;100.00;94823.13;5076484;28;20047;-60
2022/01/08 06:17:53;;;;;;;4.22;2.30;;;;;;;3.42;100.00;94820.94;5079359;28;20528;-59
2022/01/08 06:20:20;;;;;;;3.10;2.10;;;;;;;3.39;100.00;94823.88;5074607;28;20116;-60
2022/01/08 06:22:47;;;;;;;5.18;2.50;;;;;;;3.34;100.00;94821.06;5073694;28;20123;-59
2022/01/08 06:25:14;;;;;;;4.90;2.28;;;;;;;3.45;100.00;94820.56;5081213;28;20051;-60
2022/01/08 06:27:41;;;;;;;4.35;2.83;;;;;;;3.46;100.00;94824.75;5082363;28;20046;-60
2022/01/08 06:30:08;;;;;;;7.97;3.38;;;;;;;3.49;100.00;94832.06;5077929;28;20463;-60
2022/01/08 06:32:35;;;;;;;9.30;3.75;;;;;;;3.52;100.00;94829.13;5074050;28;20048;-59
2022/01/08 06:35:03;;;;;;;7.68;4.45;;;;;;;3.52;100.00;94829.13;5077052;28;20055;-59
2022/01/08 06:37:29;;;;;;;9.88;5.95;;;;;;;3.55;100.00;94833.91;5074768;28;20039;-59
2022/01/08 06:39:56;;;;;;;5.15;3.40;;;;;;;3.60;100.00;94829.00;5076359;28;20048;-59
2022/01/08 06:42:23;;;;;;;6.50;2.90;;;;;;;3.59;100.00;94824.81;5070499;28;20411;-59
2022/01/08 06:44:50;;;;;;;4.63;2.90;;;;;;;3.60;100.00;94826.44;5076575;28;20033;-60
2022/01/08 06:47:17;;;;;;;11.98;6.72;;;;;;;3.65;100.00;94823.28;5077036;28;20046;-60
2022/01/08 06:49:48;;;;;;;14.88;6.53;;;;;;;3.66;100.00;94818.94;5081928;28;20043;-59
2022/01/08 06:52:15;;;;;;;23.63;9.13;;;;;;;3.69;100.00;94823.69;5074665;28;20045;-60
2022/01/08 06:54:42;;;;;;;18.38;7.97;;;;;;;3.70;100.00;94830.44;5071606;28;20387;-60
2022/01/08 06:57:09;;;;;;;15.00;6.97;;;;;;;3.73;100.00;94819.78;5077613;28;20098;-59
2022/01/08 06:59:36;;;;;;;23.88;9.48;;;;;;;3.80;100.00;94825.78;5078320;28;20044;-60
2022/01/08 07:02:03;;;;;;;24.70;12.30;;;;;;;3.87;100.00;94821.47;5079253;28;20042;-60
2022/01/08 07:04:30;;;;;;;52.95;22.30;;;;;;;3.89;100.00;94816.91;5075554;28;20093;-59
2022/01/08 07:06:58;;;;;;;23.83;13.00;;;;;;;3.97;100.00;94827.03;5074092;28;20506;-59
2022/01/08 07:09:26;;;;;;;14.98;6.30;;;;;;;3.93;100.00;94809.59;5075912;28;20421;-60
2022/01/08 07:11:52;;;;;;;18.83;8.35;;;;;;;4.00;100.00;94826.69;5076100;28;20052;-59
2022/01/08 07:14:19;;;;;;;21.30;10.15;;;;;;;4.01;100.00;94828.25;5077210;28;20044;-59
2022/01/08 07:16:48;;;;;;;18.50;9.32;;;;;;;4.07;100.00;94823.34;5073214;28;20116;-59
2022/01/08 07:19:14;;;;;;;10.48;4.93;;;;;;;4.13;100.00;94820.78;5073849;28;20063;-60
2022/01/08 07:21:41;;;;;;;10.93;4.45;;;;;;;4.13;100.00;94814.84;5079201;28;20043;-59
2022/01/08 07:24:08;;;;;;;25.67;11.27;;;;;;;4.12;100.00;94818.41;5074264;28;20036;-60
2022/01/08 07:26:35;;;;;;;14.90;7.47;;;;;;;4.17;100.00;94821.22;5075306;28;20123;-59
2022/01/08 07:29:02;;;;;;;12.75;6.18;;;;;;;4.20;100.00;94815.69;5079165;28;20101;-60
2022/01/08 07:31:29;;;;;;;11.07;5.75;;;;;;;4.18;100.00;94810.72;5074745;28;20131;-59
2022/01/08 07:33:56;;;;;;;12.43;7.18;;;;;;;4.16;100.00;94815.25;5074720;28;20516;-59
2022/01/08 07:36:23;;;;;;;11.23;6.07;;;;;;;4.22;100.00;94821.44;5073804;28;20505;-59
2022/01/08 07:38:50;;;;;;;5.22;3.22;;;;;;;4.21;100.00;94818.06;5073309;28;20416;-60
2022/01/08 07:41:17;;;;;;;9.55;6.22;;;;;;;4.28;100.00;94818.09;5077449;28;20032;-59
2022/01/08 07:43:44;;;;;;;7.57;4.78;;;;;;;4.34;100.00;94817.34;5074525;28;20043;-59
2022/01/08 07:46:12;;;;;;;9.85;6.00;;;;;;;4.31;100.00;94822.88;5074563;28;20052;-60
2022/01/08 07:48:40;;;;;;;7.82;4.93;;;;;;;4.39;100.00;94820.13;5073173;28;20527;-59
2022/01/08 07:51:07;;;;;;;15.23;7.20;;;;;;;4.48;100.00;94817.38;5071801;28;20039;-59
2022/01/08 07:53:34;;;;;;;16.13;7.45;;;;;;;4.41;100.00;94812.19;5066837;28;20044;-59
2022/01/08 07:56:01;;;;;;;23.85;9.52;;;;;;;4.49;100.00;94808.66;5072394;28;20505;-59
2022/01/08 07:58:28;;;;;;;27.45;10.63;;;;;;;4.55;100.00;94807.88;5069807;28;20486;-59
2022/01/08 08:00:55;;;;;;;17.92;8.80;;;;;;;4.61;100.00;94801.97;5071749;28;20051;-59
2022/01/08 08:03:22;;;;;;;10.95;6.20;;;;;;;4.65;100.00;94805.72;5077110;28;20043;-59
2022/01/08 08:05:49;;;;;;;5.32;3.40;;;;;;;4.69;100.00;94812.09;5080329;28;20390;-59
2022/01/08 08:08:17;;;;;;;8.38;3.88;;;;;;;4.74;100.00;94807.13;5081253;28;20441;-60
2022/01/08 08:10:48;;;;;;;25.58;11.18;;;;;;;4.79;100.00;94804.78;5078568;28;20055;-59
2022/01/08 08:13:15;;;;;;;37.20;15.48;;;;;;;4.81;100.00;94808.94;5072683;28;20051;-60
2022/01/08 08:15:42;;;;;;;69.55;21.88;;;;;;;4.82;100.00;94797.63;5076050;28;20043;-60
2022/01/08 08:18:11;;;;;;;84.82;26.13;;;;;;;4.78;100.00;94805.75;5073992;28;20398;-59
2022/01/08 08:20:39;;;;;;;55.70;20.05;;;;;;;4.81;100.00;94796.84;5070418;28;20047;-60
2022/01/08 08:23:08;;;;;;;60.50;20.15;;;;;;;4.81;100.00;94796.03;5072996;28;20048;-59
2022/01/08 08:25:34;;;;;;;15.55;6.68;;;;;;;4.84;100.00;94800.81;5077003;28;20044;-60
2022/01/08 08:28:04;;;;;;;8.23;2.30;;;;;;;4.85;100.00;94792.09;5072456;28;20045;-59
2022/01/08 08:30:33;;;;;;;20.67;8.55;;;;;;;4.88;100.00;94796.84;5077147;28;20657;-59
2022/01/08 08:33:04;;;;;;;5.43;3.55;;;;;;;4.86;100.00;94785.91;5074670;28;20041;-59
2022/01/08 08:35:32;;;;;;;3.25;1.52;;;;;;;4.93;100.00;94789.31;5069259;28;20111;-59
2022/01/08 08:37:59;;;;;;;4.80;2.05;;;;;;;4.93;100.00;94782.38;5072358;28;20053;-59
2022/01/08 08:40:26;;;;;;;1.80;1.15;;;;;;;4.97;100.00;94780.19;5075899;28;20056;-59
2022/01/08 08:42:53;;;;;;;4.03;1.40;;;;;;;5.01;100.00;94781.38;5074598;28;20036;-60
2022/01/08 08:45:20;;;;;;;4.75;1.45;;;;;;;5.02;100.00;94777.78;5071012;28;20039;-59
2022/01/08 08:47:47;;;;;;;2.00;0.82;;;;;;;4.97;100.00;94777.63;5074761;28;20509;-59
2022/01/08 08:50:15;;;;;;;1.02;0.60;;;;;;;4.90;100.00;94769.06;5070814;28;20052;-59
2022/01/08 08:52:42;;;;;;;2.10;0.90;;;;;;;4.95;100.00;94777.81;5070600;28;20044;-59
2022/01/08 08:55:10;;;;;;;3.15;0.98;;;;;;;4.99;100.00;94773.06;5076353;28;20051;-59
2022/01/08 08:57:37;;;;;;;2.35;0.90;;;;;;;5.03;100.00;94763.91;5070706;28;20050;-59
2022/01/08 09:00:05;;;;;;;2.13;0.90;;;;;;;5.10;100.00;94771.66;5076116;28;20049;-59
2022/01/08 09:02:32;;;;;;;3.60;1.40;;;;;;;5.16;100.00;94763.13;5077831;28;20115;-59
2022/01/08 09:04:59;;;;;;;1.95;1.00;;;;;;;5.17;100.00;94749.22;5072383;28;20529;-59
2022/01/08 09:07:26;;;;;;;3.17;1.77;;;;;;;5.24;100.00;94754.38;5080181;28;20421;-59
2022/01/08 09:09:52;;;;;;;3.00;1.77;;;;;;;5.29;100.00;94749.41;5074817;28;20040;-59
2022/01/08 09:12:19;;;;;;;8.15;4.30;;;;;;;5.32;100.00;94756.75;5079619;28;20044;-59
2022/01/08 09:14:46;;;;;;;3.78;1.65;;;;;;;5.30;100.00;94743.25;5074218;28;20484;-59
2022/01/08 09:17:14;;;;;;;3.60;1.75;;;;;;;5.34;100.00;94740.06;5074872;28;20051;-59
2022/01/08 09:19:43;;;;;;;3.33;1.50;;;;;;;5.53;100.00;94753.19;5078262;28;20036;-59
2022/01/08 09:22:12;;;;;;;3.13;1.63;;;;;;;5.44;100.00;94734.50;5076155;28;20048;-59
2022/01/08 09:24:40;;;;;;;3.03;2.00;;;;;;;5.53;100.00;94743.63;5074041;28;20059;-59
2022/01/08 09:27:08;;;;;;;8.60;4.28;;;;;;;5.61;100.00;94734.88;5071881;28;20044;-59
2022/01/08 09:29:35;;;;;;;2.90;2.03;;;;;;;5.60;100.00;94742.81;5075457;28;20414;-59
2022/01/08 09:32:05;;;;;;;2.35;1.38;;;;;;;5.61;100.00;94739.25;5072280;28;20505;-59
2022/01/08 09:34:32;;;;;;;2.78;1.05;;;;;;;5.54;100.00;94728.91;5068250;28;20525;-59
2022/01/08 09:36:59;;;;;;;3.45;2.03;;;;;;;5.55;100.00;94736.47;5075250;28;20037;-59
2022/01/08 09:39:26;;;;;;;3.83;2.58;;;;;;;5.64;100.00;94731.09;5074938;28;20418;-59
2022/01/08 09:41:54;;;;;;;5.68;2.85;;;;;;;5.64;100.00;94725.94;5079649;28;20044;-59
2022/01/08 09:44:21;;;;;;;3.22;1.50;;;;;;;5.58;100.00;94721.56;5074087;28;20043;-58
2022/01/08 09:46:48;;;;;;;2.38;0.95;;;;;;;5.57;100.00;94719.97;5078558;28;20081;-59
2022/01/08 09:49:15;;;;;;;3.28;1.27;;;;;;;5.58;100.00;94718.97;5082797;28;20048;-59
2022/01/08 09:51:42;;;;;;;4.97;3.80;;;;;;;5.63;100.00;94716.59;5076827;28;20048;-59
2022/01/08 09:54:09;;;;;;;5.07;2.60;;;;;;;5.72;100.00;94707.59;5079644;28;20050;-59
2022/01/08 09:56:36;;;;;;;5.40;2.72;;;;;;;5.73;100.00;94711.78;5077304;28;20036;-58
2022/01/08 09:59:03;;;;;;;4.75;2.30;;;;;;;5.75;100.00;94704.63;5074050;28;21499;-57
2022/01/08 10:01:35;;;;;;;8.18;3.35;;;;;;;5.83;100.00;94706.97;5076136;28;20055;-58
2022/01/08 10:04:05;;;;;;;6.88;3.25;;;;;;;5.91;100.00;94708.56;5071837;28;20040;-58
2022/01/08 10:06:34;;;;;;;8.25;4.75;;;;;;;5.96;100.00;94700.19;5083118;28;20060;-58
2022/01/08 10:09:04;;;;;;;4.43;2.75;;;;;;;6.00;99.88;94701.41;5079425;28;20055;-60
2022/01/08 10:11:32;;;;;;;6.18;3.13;;;;;;;5.99;99.24;94699.81;5078691;28;20484;-60
2022/01/08 10:14:15;;;;;;;6.85;2.92;;;;;;;5.94;99.70;94698.59;5077064;28;20044;-59
2022/01/08 10:19:29;;;;;;;13.00;6.15;;;;;;;6.15;100.00;94688.97;5079870;28;20131;-60
2022/01/08 10:21:57;;;;;;;10.07;6.43;;;;;;;6.14;100.00;94687.41;5082562;28;20043;-60
2022/01/08 10:24:26;;;;;;;9.02;4.93;;;;;;;6.17;100.00;94692.16;5079898;28;20040;-59
2022/01/08 10:27:05;;;;;;;8.90;6.50;;;;;;;6.18;100.00;94677.47;5076208;28;20788;-60
2022/01/08 10:29:33;;;;;;;6.25;4.63;;;;;;;6.04;100.00;94676.72;5076090;28;20044;-59
2022/01/08 10:32:04;;;;;;;5.88;3.53;;;;;;;6.11;100.00;94669.72;5076860;28;20505;-59
2022/01/08 10:34:32;;;;;;;4.05;2.28;;;;;;;6.09;99.90;94674.31;5075329;28;20028;-58
2022/01/08 10:37:00;;;;;;;10.88;5.45;;;;;;;6.09;100.00;94671.72;5080382;28;20703;-59
2022/01/08 10:39:29;;;;;;;23.83;8.50;;;;;;;6.18;100.00;94662.72;5076300;28;20463;-59
2022/01/08 10:42:14;;;;;;;11.43;6.28;;;;;;;6.16;100.00;94654.38;5072337;28;20044;-58
2022/01/08 10:44:42;;;;;;;6.10;4.38;;;;;;;6.23;100.00;94649.97;5080750;28;20482;-58
2022/01/08 10:47:16;;;;;;;6.25;3.45;;;;;;;6.33;99.96;94652.09;5074640;28;20101;-58
2022/01/08 10:49:47;;;;;;;5.80;2.83;;;;;;;6.38;99.70;94648.88;5078235;28;20056;-59
2022/01/08 10:52:17;;;;;;;6.80;4.53;;;;;;;6.39;99.93;94642.69;5073817;28;20501;-59
2022/01/08 10:54:53;;;;;;;6.47;3.83;;;;;;;6.42;99.43;94644.88;5075200;28;20052;-59
2022/01/08 10:57:21;;;;;;;6.75;3.70;;;;;;;6.35;98.89;94642.31;5076817;28;20036;-58
2022/01/08 10:59:55;;;;;;;5.28;2.33;;;;;;;6.36;98.81;94632.78;5075602;28;20047;-59
2022/01/08 11:02:26;;;;;;;;;;;;;;;6.43;98.67;94636.91;5076094;28;20048;-60
2022/01/08 11:04:54;;;;;;;16.40;8.57;;;;;;;6.31;98.51;94621.25;5080305;28;19933;-59
2022/01/08 11:07:25;;;;;;;6.45;3.60;;;;;;;6.32;98.61;94628.03;5075720;28;20048;-59
2022/01/08 11:09:56;;;;;;;6.72;4.40;;;;;;;6.32;99.01;94633.19;5074451;28;20493;-58
2022/01/08 11:12:39;;;;;;;4.30;2.45;;;;;;;6.35;98.38;94626.00;5081410;28;20056;-59
2022/01/08 11:17:49;;;;;;;4.70;3.28;;;;;;;6.49;97.75;94619.75;5078299;28;20046;-59
2022/01/08 11:20:25;;;;;;;6.43;3.60;;;;;;;6.55;97.56;94620.69;5081105;28;20138;-59
2022/01/08 11:22:54;;;;;;;10.32;5.00;;;;;;;6.54;97.48;94619.91;5076021;28;20040;-59
2022/01/08 11:25:26;;;;;;;4.57;2.83;;;;;;;6.47;96.84;94619.16;5079981;28;20044;-59
2022/01/08 11:27:59;;;;;;;5.50;3.20;;;;;;;6.36;97.42;94617.25;5078289;28;22123;-59
2022/01/08 11:30:47;;;;;;;12.18;5.18;;;;;;;6.50;97.67;94608.41;5078626;28;20044;-59
2022/01/08 11:33:20;;;;;;;8.57;3.85;;;;;;;6.59;97.30;94612.31;5075695;28;20799;-59
2022/01/08 11:35:49;;;;;;;94.53;34.20;;;;;;;6.63;96.73;94607.50;5080604;28;20032;-58
2022/01/08 11:38:19;;;;;;;11.02;6.05;;;;;;;6.65;96.38;94605.50;5079770;28;20044;-59
2022/01/08 11:40:49;;;;;;;8.55;5.50;;;;;;;6.63;96.38;94600.53;5075341;28;20043;-59
2022/01/08 11:43:24;;;;;;;8.73;4.45;;;;;;;6.59;96.07;94591.63;5077787;28;20048;-58
2022/01/08 11:45:52;;;;;;;;;;;;;;;6.50;96.68;94598.06;5072224;28;20036;-59
2022/01/08 11:48:24;;;;;;;10.32;6.72;;;;;;;6.37;97.27;94592.97;5072920;28;19920;-59
2022/01/08 11:50:57;;;;;;;11.38;5.72;;;;;;;6.37;97.78;94593.75;5076776;28;20036;-59
2022/01/08 11:53:27;;;;;;;6.35;3.47;;;;;;;6.22;98.06;94596.66;5077626;28;20567;-59
2022/01/08 11:55:58;;;;;;;9.52;5.50;;;;;;;6.20;98.33;94593.47;5079584;28;20041;-59
2022/01/08 11:58:30;;;;;;;15.68;7.28;;;;;;;6.25;98.65;94580.72;5073564;28;20052;-59
2022/01/08 12:01:06;;;;;;;23.20;7.63;;;;;;;6.26;99.03;94582.28;5074349;28;20055;-58
2022/01/08 12:03:39;;;;;;;15.50;5.03;;;;;;;6.22;98.62;94570.78;5076897;28;20032;-58
2022/01/08 12:06:18;;;;;;;16.83;8.23;;;;;;;6.43;98.94;94586.97;5072368;28;20071;-59